Quaker City, Ohio
Current Conditions -  °F | °C
As of 6:12 AM on Thursday 23 Oct 2014 (Local Time) from KZZV Reporting Station
Broken Clouds Broken Clouds  
Wind Chill: 42°   Ceiling: 1000
Heat Index: 42°   Visibility: 10mi
Dew Point: 40°   Wind: 3mph
Humidity: 92%   Direction: 330°NNW
Pressure: 30.2"   Gusts: NA
Location:  39.97°N, 81.3°W
Report Text: KZZV 231012Z AUTO 33003KT 10SM BKN010 06/04 A3020 RMK AO2 T00560044
Loading
Personal Weather Stations






























Interactive Weather Map
Tropical Storm Tracking
New forecast layout! Learn more

10-Day Weather Forecast

Advertisements
Track Severe Weather on mobile